Time;durP1;ratioP1;P1;durP2;ratioP2;P2;SDS_P1;SDS_P2;PMS_P1;PMS_P2;Temp;Humidity;BMP_temperature;BMP_pressure;BME280_temperature;BME280_humidity;BME280_pressure;Samples;Min_cycle;Max_cycle;Signal;HPM_P1;HPM_P2
2021/12/11 00:00:21;;;;;;;;;;;;;;;9.08;50.71;98533.66;4454298;32;33965;-72
2021/12/11 00:03:03;;;;;;;;;;;;;;;8.96;50.56;98537.41;4466717;32;33484;-72
2021/12/11 00:05:31;;;;;;;;;;;;;;;8.59;51.68;98541.41;4466293;32;34175;-71
2021/12/11 00:08:00;;;;;;;;;;;;;;;7.98;53.79;98543.06;4455025;32;35397;-73
2021/12/11 00:10:42;;;;;;;;;;;;;;;8.57;51.79;98550.53;4466031;32;35532;-75
2021/12/11 00:13:12;;;;;;;;;;;;;;;8.65;51.60;98556.06;4465747;32;32399;-72
2021/12/11 00:15:41;;;;;;;;;;;;;;;8.42;52.33;98563.34;4478913;32;33705;-73
2021/12/11 00:18:10;;;;;;;;;;;;;;;8.68;51.34;98557.62;4468176;32;34444;-72
2021/12/11 00:20:43;;;;;;;;;;;;;;;8.71;51.36;98558.22;4465929;32;35350;-70
2021/12/11 00:23:10;;;;;;;;;;;;;;;8.64;51.14;98567.72;4473327;32;33321;-71
2021/12/11 00:25:41;;;;;;;;;;;;;;;8.62;51.66;98569.66;4468223;32;34327;-72
2021/12/11 00:28:09;;;;;;;;;;;;;;;8.68;51.50;98578.97;4457887;32;34323;-71
2021/12/11 00:30:39;;;;;;;;;;;;;;;8.85;51.15;98578.34;4472329;32;35397;-71
2021/12/11 00:33:17;;;;;;;;;;;;;;;8.52;51.65;98592.75;4470128;32;33256;-73
2021/12/11 00:35:45;;;;;;;;;;;;;;;8.60;51.58;98595.59;4467471;32;35139;-72
2021/12/11 00:38:17;;;;;;;;;;;;;;;9.35;49.61;98597.13;4452482;32;34686;-71
2021/12/11 00:40:45;;;;;;;;;;;;;;;8.09;52.39;98609.62;4469536;32;34510;-71
2021/12/11 00:43:17;;;;;;;;;;;;;;;9.41;49.58;98607.28;4477955;32;33235;-70
2021/12/11 00:45:45;;;;;;;;;;;;;;;9.26;49.64;98608.63;4473549;32;31883;-70
2021/12/11 00:48:14;;;;;;;;;;;;;;;8.54;51.35;98621.00;4468931;32;34494;-71
2021/12/11 00:50:45;;;;;;;;;;;;;;;9.41;49.46;98623.31;4459608;32;35389;-75
2021/12/11 00:53:19;;;;;;;;;;;;;;;9.62;49.15;98625.91;4467583;32;32057;-73
2021/12/11 00:55:47;;;;;;;;;;;;;;;8.89;51.05;98634.97;4453302;32;32896;-71
2021/12/11 00:58:20;;;;;;;;;;;;;;;8.58;50.92;98637.59;4469967;32;33337;-74
2021/12/11 01:00:53;;;;;;;;;;;;;;;9.84;48.07;98642.69;4471976;32;34105;-72
2021/12/11 01:03:23;;;;;;;;;;;;;;;9.28;49.22;98649.41;4470165;32;33545;-71
2021/12/11 01:05:52;;;;;;;;;;;;;;;9.51;48.84;98642.03;4466154;32;32909;-72
2021/12/11 01:08:20;;;;;;;;;;;;;;;9.10;50.46;98638.47;4479596;32;34846;-72
2021/12/11 01:10:48;;;;;;;;;;;;;;;8.92;50.52;98634.72;4475701;32;35038;-71
2021/12/11 01:13:19;;;;;;;;;;;;;;;7.83;53.08;98647.28;4478295;32;34057;-69
2021/12/11 01:15:54;;;;;;;;;;;;;;;8.37;51.84;98648.19;4470477;32;34901;-71
2021/12/11 01:18:29;;;;;;;;;;;;;;;8.44;52.01;98645.88;4477108;32;34143;-70
2021/12/11 01:21:18;;;;;;;;;;;;;;;9.18;49.99;98644.00;4479402;32;34297;-69
2021/12/11 01:23:57;;;;;;;;;;;;;;;8.50;51.14;98654.22;4465023;32;33407;-68
2021/12/11 01:26:25;;;;;;;;;;;;;;;8.58;51.46;98654.44;4474953;32;34303;-70
2021/12/11 01:28:52;;;;;;;;;;;;;;;9.76;48.66;98652.25;4474758;32;34954;-69
2021/12/11 01:31:20;;;;;;;;;;;;;;;9.44;48.72;98644.41;4466986;32;34581;-68
2021/12/11 01:33:48;;;;;;;;;;;;;;;9.49;49.12;98652.84;4475774;32;33872;-72
2021/12/11 01:36:16;;;;;;;;;;;;;;;9.45;48.87;98647.91;4470051;32;34046;-70
2021/12/11 01:38:44;;;;;;;;;;;;;;;9.66;48.73;98658.53;4477367;32;35525;-68
2021/12/11 01:41:16;;;;;;;;;;;;;;;9.53;49.05;98651.63;4472500;32;35061;-69
2021/12/11 01:43:47;;;;;;;;;;;;;;;10.09;47.44;98662.75;4470208;32;33338;-69
2021/12/11 01:46:15;;;;;;;;;;;;;;;10.41;46.59;98665.19;4475218;32;34283;-68
2021/12/11 01:48:44;;;;;;;;;;;;;;;9.76;48.15;98672.78;4475698;32;34424;-68
2021/12/11 01:51:16;;;;;;;;;;;;;;;8.49;50.82;98683.69;4480226;32;33024;-71
2021/12/11 01:53:47;;;;;;;;;;;;;;;9.83;48.23;98683.78;4473885;32;33187;-71
2021/12/11 01:56:16;;;;;;;;;;;;;;;9.92;48.06;98677.59;4466238;32;34022;-70
2021/12/11 01:58:46;;;;;;;;;;;;;;;9.42;49.51;98675.72;4471214;32;34364;-70
2021/12/11 02:01:15;;;;;;;;;;;;;;;10.17;47.28;98662.88;4465722;32;34539;-69
2021/12/11 02:03:44;;;;;;;;;;;;;;;9.89;48.09;98662.69;4465491;32;34982;-69
2021/12/11 02:06:11;;;;;;;;;;;;;;;10.20;46.97;98665.28;4468897;32;34923;-72
2021/12/11 02:08:40;;;;;;;;;;;;;;;10.16;47.46;98662.03;4468061;32;34170;-71
2021/12/11 02:11:12;;;;;;;;;;;;;;;10.39;46.94;98659.13;4466141;32;34447;-71
2021/12/11 02:13:52;;;;;;;;;;;;;;;10.24;47.28;98658.66;4463945;32;33760;-71
2021/12/11 02:16:43;;;;;;;;;;;;;;;10.10;47.66;98651.06;4465070;32;35137;-70
2021/12/11 02:19:32;;;;;;;;;;;;;;;10.33;46.98;98649.00;4470977;32;33637;-73
2021/12/11 02:22:02;;;;;;;;;;;;;;;10.78;45.54;98646.59;4466225;32;32706;-71
2021/12/11 02:24:56;;;;;;;;;;;;;;;10.80;45.88;98639.25;4469339;32;33682;-72
2021/12/11 02:27:25;;;;;;;;;;;;;;;10.46;46.66;98655.78;4469529;32;33585;-71
2021/12/11 02:30:16;;;;;;;;;;;;;;;9.29;49.85;98643.06;4470575;32;33773;-71
2021/12/11 02:32:44;;;;;;;;;;;;;;;9.62;48.98;98649.94;4466002;32;35509;-73
2021/12/11 02:35:14;;;;;;;;;;;;;;;9.33;49.85;98647.16;4466982;32;33361;-72
2021/12/11 02:37:45;;;;;;;;;;;;;;;9.14;51.10;98653.22;4464711;32;34198;-69
2021/12/11 02:40:20;;;;;;;;;;;;;;;9.61;49.06;98650.94;4471548;32;34277;-72
2021/12/11 02:42:52;;;;;;;;;;;;;;;10.13;47.94;98648.94;4466266;32;34105;-72
2021/12/11 02:45:31;;;;;;;;;;;;;;;9.54;49.20;98639.09;4469120;32;33686;-70
2021/12/11 02:48:05;;;;;;;;;;;;;;;9.65;48.96;98638.97;4473893;32;35855;-71
2021/12/11 02:50:34;;;;;;;;;;;;;;;9.75;49.25;98642.53;4472547;32;34356;-71
2021/12/11 02:53:05;;;;;;;;;;;;;;;9.88;48.95;98649.44;4470240;32;33999;-72
2021/12/11 02:55:35;;;;;;;;;;;;;;;9.78;48.91;98646.75;4469315;32;33255;-71
2021/12/11 02:58:07;;;;;;;;;;;;;;;9.65;49.24;98649.66;4472003;32;34114;-70
2021/12/11 03:00:38;;;;;;;;;;;;;;;10.13;47.99;98646.28;4472599;32;35425;-68
2021/12/11 03:03:07;;;;;;;;;;;;;;;9.61;49.25;98640.25;4457393;32;33503;-70
2021/12/11 03:05:44;;;;;;;;;;;;;;;9.96;48.41;98621.06;4472630;32;33632;-69
2021/12/11 03:08:14;;;;;;;;;;;;;;;10.15;48.01;98628.28;4472340;32;35198;-69
2021/12/11 03:10:43;;;;;;;;;;;;;;;10.29;47.88;98635.06;4461509;32;33696;-70
2021/12/11 03:13:10;;;;;;;;;;;;;;;10.03;48.46;98634.72;4474392;32;34623;-71
2021/12/11 03:15:38;;;;;;;;;;;;;;;10.84;46.28;98635.31;4471140;32;33677;-72
2021/12/11 03:18:05;;;;;;;;;;;;;;;10.80;46.05;98636.59;4481544;32;34286;-69
2021/12/11 03:20:33;;;;;;;;;;;;;;;11.17;45.08;98647.38;4467367;32;34435;-71
2021/12/11 03:23:01;;;;;;;;;;;;;;;11.25;44.76;98656.50;4467241;32;34412;-71
2021/12/11 03:25:28;;;;;;;;;;;;;;;11.21;45.05;98669.34;4465882;32;33715;-71
2021/12/11 03:27:59;;;;;;;;;;;;;;;11.46;44.43;98683.94;4464213;32;33856;-72
2021/12/11 03:30:29;;;;;;;;;;;;;;;11.46;43.67;98675.03;4471041;32;33938;-75
2021/12/11 03:32:58;;;;;;;;;;;;;;;11.69;43.03;98684.41;4470147;32;34030;-71
2021/12/11 03:35:26;;;;;;;;;;;;;;;11.52;43.42;98690.53;4470326;32;33287;-74
2021/12/11 03:37:54;;;;;;;;;;;;;;;11.56;43.25;98690.13;4455988;32;34039;-71
2021/12/11 03:40:22;;;;;;;;;;;;;;;11.40;43.72;98704.13;4452996;32;33843;-73
2021/12/11 03:42:50;;;;;;;;;;;;;;;11.48;43.45;98703.38;4468556;32;34438;-72
2021/12/11 03:45:19;;;;;;;;;;;;;;;11.54;43.12;98708.16;4460847;32;33580;-74
2021/12/11 03:47:49;;;;;;;;;;;;;;;11.57;43.21;98707.88;4474893;32;32990;-73
2021/12/11 03:50:17;;;;;;;;;;;;;;;11.04;43.71;98712.91;4475542;32;34458;-72
2021/12/11 03:52:45;;;;;;;;;;;;;;;11.05;43.64;98715.47;4471858;32;33927;-71
2021/12/11 03:55:13;;;;;;;;;;;;;;;11.22;43.38;98697.81;4475821;32;33319;-72
2021/12/11 03:57:43;;;;;;;;;;;;;;;11.27;43.50;98708.97;4460463;32;32731;-72
2021/12/11 04:00:15;;;;;;;;;;;;;;;10.94;44.16;98713.75;4470953;32;34972;-71
2021/12/11 04:02:44;;;;;;;;;;;;;;;11.14;43.73;98703.91;4457528;32;33951;-72
2021/12/11 04:05:12;;;;;;;;;;;;;;;10.74;44.74;98701.38;4465844;32;34263;-71
2021/12/11 04:07:41;;;;;;;;;;;;;;;10.97;44.53;98696.56;4465985;32;34063;-72
2021/12/11 04:10:10;;;;;;;;;;;;;;;11.16;44.27;98701.06;4470164;32;35119;-71
2021/12/11 04:12:38;;;;;;;;;;;;;;;11.25;43.38;98699.38;4482119;32;35104;-72
2021/12/11 04:15:06;;;;;;;;;;;;;;;11.16;43.35;98698.37;4471738;32;33308;-70
2021/12/11 04:17:33;;;;;;;;;;;;;;;10.69;44.20;98706.34;4468338;32;34125;-71
2021/12/11 04:20:05;;;;;;;;;;;;;;;10.93;43.60;98711.25;4460513;32;35359;-72
2021/12/11 04:22:33;;;;;;;;;;;;;;;11.13;43.08;98715.59;4465268;32;36990;-71
2021/12/11 04:25:00;;;;;;;;;;;;;;;10.70;44.33;98706.19;4477537;32;33283;-72
2021/12/11 04:27:28;;;;;;;;;;;;;;;10.10;45.67;98713.37;4468132;32;33873;-72
2021/12/11 04:29:55;;;;;;;;;;;;;;;10.23;45.38;98718.47;4471737;32;34044;-71
2021/12/11 04:32:23;;;;;;;;;;;;;;;10.19;45.12;98714.41;4467151;32;34198;-71
2021/12/11 04:34:51;;;;;;;;;;;;;;;10.44;44.26;98716.59;4467396;32;33789;-72
2021/12/11 04:37:21;;;;;;;;;;;;;;;10.36;44.65;98721.78;4467098;32;34607;-72
2021/12/11 04:39:56;;;;;;;;;;;;;;;10.20;45.35;98732.12;4466698;32;35197;-70
2021/12/11 04:42:39;;;;;;;;;;;;;;;10.36;44.86;98727.13;4466029;32;33897;-73
2021/12/11 04:45:09;;;;;;;;;;;;;;;9.82;46.19;98727.50;4467985;32;33714;-72
2021/12/11 04:47:44;;;;;;;;;;;;;;;10.01;45.68;98725.72;4470122;32;34121;-74
2021/12/11 04:50:25;;;;;;;;;;;;;;;10.05;45.62;98726.34;4466506;32;35222;-73
2021/12/11 04:52:57;;;;;;;;;;;;;;;10.51;44.72;98724.06;4470512;32;34046;-75
2021/12/11 05:06:33;;;;;;;;;;;;;;;10.46;44.15;98730.69;4466908;32;32104;-72
2021/12/11 05:12:06;;;;;;;;;;;;;;;10.11;45.06;98746.31;4479699;32;35312;-73
2021/12/11 05:14:34;;;;;;;;;;;;;;;10.32;44.52;98754.28;4470749;32;35051;-74
2021/12/11 05:17:02;;;;;;;;;;;;;;;10.38;44.08;98762.62;4475318;32;33646;-73
2021/12/11 05:19:29;;;;;;;;;;;;;;;10.15;44.88;98763.78;4458546;32;34812;-72
2021/12/11 05:21:57;;;;;;;;;;;;;;;10.24;44.52;98755.81;4475037;32;34391;-73
2021/12/11 05:24:24;;;;;;;;;;;;;;;10.19;44.63;98749.16;4457430;32;34945;-77
2021/12/11 05:26:52;;;;;;;;;;;;;;;9.92;44.79;98760.44;4469215;32;33629;-73
2021/12/11 05:29:19;;;;;;;;;;;;;;;9.66;45.62;98760.94;4478439;32;34376;-76
2021/12/11 05:31:47;;;;;;;;;;;;;;;9.89;45.61;98761.59;4468271;32;32859;-74
2021/12/11 05:34:14;;;;;;;;;;;;;;;9.60;46.15;98753.44;4479549;32;34334;-74
2021/12/11 05:36:41;;;;;;;;;;;;;;;9.19;47.00;98760.50;4472999;32;33622;-75
2021/12/11 05:39:10;;;;;;;;;;;;;;;8.63;48.20;98764.25;4467698;32;32633;-77
2021/12/11 05:41:38;;;;;;;;;;;;;;;8.95;48.43;98776.72;4466988;32;34339;-74
2021/12/11 05:44:06;;;;;;;;;;;;;;;9.23;47.10;98777.09;4454889;32;34482;-77
2021/12/11 05:46:33;;;;;;;;;;;;;;;8.80;48.30;98775.34;4468193;32;33151;-71
2021/12/11 05:49:01;;;;;;;;;;;;;;;9.26;47.50;98769.66;4467694;32;35002;-70
2021/12/11 05:51:30;;;;;;;;;;;;;;;9.43;47.94;98775.41;4465198;32;33050;-70
2021/12/11 05:53:59;;;;;;;;;;;;;;;9.69;47.07;98778.50;4466631;32;34130;-69
2021/12/11 05:56:32;;;;;;;;;;;;;;;9.74;45.66;98779.78;4467537;32;33602;-69
2021/12/11 05:59:00;;;;;;;;;;;;;;;9.30;46.50;98786.28;4465169;32;34168;-68
2021/12/11 06:01:34;;;;;;;;;;;;;;;9.70;46.37;98798.91;4465952;32;34896;-70
2021/12/11 06:04:06;;;;;;;;;;;;;;;10.04;45.29;98796.81;4465668;32;35241;-68
2021/12/11 06:06:34;;;;;;;;;;;;;;;10.14;45.22;98807.53;4478613;32;32376;-72
2021/12/11 06:09:03;;;;;;;;;;;;;;;10.36;44.07;98822.56;4481408;32;35211;-72
2021/12/11 06:11:30;;;;;;;;;;;;;;;10.21;44.29;98830.94;4476363;32;34164;-72
2021/12/11 06:13:57;;;;;;;;;;;;;;;10.31;44.91;98833.69;4450350;32;34673;-74
2021/12/11 06:16:25;;;;;;;;;;;;;;;10.17;44.99;98839.34;4467816;32;33734;-70
2021/12/11 06:18:53;;;;;;;;;;;;;;;10.37;44.58;98857.22;4466911;32;33697;-70
2021/12/11 06:21:20;;;;;;;;;;;;;;;10.29;44.50;98872.25;4477744;32;35086;-70
2021/12/11 06:23:48;;;;;;;;;;;;;;;10.83;43.24;98869.19;4467585;32;34026;-70
2021/12/11 06:26:15;;;;;;;;;;;;;;;10.56;43.76;98876.97;4469790;32;33520;-69
2021/12/11 06:28:42;;;;;;;;;;;;;;;11.16;42.62;98880.50;4467790;32;34030;-69
2021/12/11 06:31:18;;;;;;;;;;;;;;;11.41;42.39;98884.47;4478284;32;34443;-68
2021/12/11 06:33:51;;;;;;;;;;;;;;;11.99;40.96;98884.44;4475846;32;35148;-68
2021/12/11 06:36:19;;;;;;;;;;;;;;;11.88;40.60;98885.47;4473306;32;34232;-68
2021/12/11 06:38:48;;;;;;;;;;;;;;;11.70;41.20;98897.84;4471090;32;35081;-68
2021/12/11 06:41:16;;;;;;;;;;;;;;;12.05;40.23;98910.69;4468641;32;34662;-71
2021/12/11 06:43:44;;;;;;;;;;;;;;;11.65;41.00;98908.16;4465163;32;35923;-70
2021/12/11 06:46:11;;;;;;;;;;;;;;;12.08;40.63;98909.56;4465959;32;33647;-70
2021/12/11 06:48:39;;;;;;;;;;;;;;;11.74;41.08;98912.66;4473916;32;34039;-71
2021/12/11 06:51:06;;;;;;;;;;;;;;;12.38;39.79;98911.16;4478774;32;34252;-70
2021/12/11 06:53:39;;;;;;;;;;;;;;;11.73;41.17;98915.50;4468666;32;33953;-71
2021/12/11 06:56:08;;;;;;;;;;;;;;;12.11;39.66;98925.38;4476608;32;33428;-69
2021/12/11 06:58:35;;;;;;;;;;;;;;;12.46;39.24;98929.22;4471726;32;34263;-70
2021/12/11 07:01:03;;;;;;;;;;;;;;;11.67;40.62;98933.00;4475757;32;34437;-70
2021/12/11 07:03:31;;;;;;;;;;;;;;;12.38;39.19;98940.69;4468703;32;34360;-70
2021/12/11 07:05:58;;;;;;;;;;;;;;;12.10;39.58;98943.31;4471620;32;33491;-71
2021/12/11 07:08:29;;;;;;;;;;;;;;;11.66;40.67;98953.59;4472842;32;34154;-71
2021/12/11 07:10:57;;;;;;;;;;;;;;;12.09;40.08;98960.38;4475659;32;34423;-70
2021/12/11 07:13:25;;;;;;;;;;;;;;;12.52;38.69;98971.56;4475492;32;34334;-69
2021/12/11 07:15:52;;;;;;;;;;;;;;;12.87;38.25;98975.41;4468577;32;33278;-70
2021/12/11 07:18:20;;;;;;;;;;;;;;;12.59;38.85;98986.94;4469115;32;34264;-72
2021/12/11 07:20:47;;;;;;;;;;;;;;;11.71;40.20;98988.00;4473326;32;33218;-72
2021/12/11 07:23:15;;;;;;;;;;;;;;;11.56;40.50;98995.63;4469694;32;35293;-71
2021/12/11 07:25:56;;;;;;;;;;;;;;;11.55;40.36;99006.47;4471864;32;33527;-72
2021/12/11 07:28:24;;;;;;;;;;;;;;;10.96;42.50;99014.34;4454991;32;33561;-71
2021/12/11 07:30:52;;;;;;;;;;;;;;;11.24;41.13;99022.62;4474445;32;34201;-70
2021/12/11 07:33:20;;;;;;;;;;;;;;;11.35;41.33;99021.66;4467377;32;34330;-70
2021/12/11 07:35:47;;;;;;;;;;;;;;;11.76;40.03;99025.13;4467788;32;32455;-69
2021/12/11 07:38:15;;;;;;;;;;;;;;;11.97;40.28;99027.69;4469286;32;32601;-70
2021/12/11 07:40:45;;;;;;;;;;;;;;;11.82;40.47;99033.47;4468912;32;33911;-70
2021/12/11 07:43:13;;;;;;;;;;;;;;;12.01;39.87;99029.97;4478670;32;33227;-72
2021/12/11 07:45:41;;;;;;;;;;;;;;;12.18;40.05;99030.25;4473480;32;33493;-70
2021/12/11 07:48:08;;;;;;;;;;;;;;;11.88;40.31;99030.25;4473263;32;35075;-69
2021/12/11 07:50:35;;;;;;;;;;;;;;;12.43;38.91;99034.19;4467391;32;35454;-70
2021/12/11 07:53:04;;;;;;;;;;;;;;;12.35;39.02;99030.34;4475733;32;35650;-71
2021/12/11 07:55:32;;;;;;;;;;;;;;;11.94;40.57;99022.62;4467308;32;34425;-71
2021/12/11 07:58:00;;;;;;;;;;;;;;;12.05;39.40;99015.28;4470713;32;34012;-71
2021/12/11 08:00:29;;;;;;;;;;;;;;;12.48;38.94;99027.38;4474388;32;32663;-69
2021/12/11 08:02:56;;;;;;;;;;;;;;;12.50;38.62;99027.25;4471354;32;33255;-70
2021/12/11 08:05:25;;;;;;;;;;;;;;;12.49;38.44;99026.41;4466764;32;34597;-69
2021/12/11 08:07:52;;;;;;;;;;;;;;;12.44;37.94;99035.88;4474248;32;34580;-70
2021/12/11 08:10:22;;;;;;;;;;;;;;;12.22;38.63;99035.19;4479588;32;35477;-70
2021/12/11 08:12:49;;;;;;;;;;;;;;;12.18;38.90;99032.94;4468135;32;34323;-70
2021/12/11 08:15:17;;;;;;;;;;;;;;;12.49;38.45;99042.50;4467719;32;34625;-69
2021/12/11 08:17:50;;;;;;;;;;;;;;;12.52;38.22;99036.84;4478146;32;34104;-69
2021/12/11 08:20:19;;;;;;;;;;;;;;;12.72;38.09;99043.03;4472308;32;33967;-72
2021/12/11 08:22:46;;;;;;;;;;;;;;;12.66;38.30;99038.22;4474575;32;34601;-70
2021/12/11 08:25:14;;;;;;;;;;;;;;;12.86;37.68;99048.91;4469251;32;33633;-70
2021/12/11 08:27:41;;;;;;;;;;;;;;;13.12;36.93;99055.31;4474986;32;35104;-70
2021/12/11 08:30:09;;;;;;;;;;;;;;;13.10;37.28;99051.06;4471594;32;34450;-70
2021/12/11 08:32:37;;;;;;;;;;;;;;;13.35;36.52;99046.91;4472776;32;34158;-70
2021/12/11 08:35:05;;;;;;;;;;;;;;;12.68;37.95;99054.16;4466005;32;33485;-72
2021/12/11 08:37:33;;;;;;;;;;;;;;;12.71;37.81;99054.75;4465037;32;34236;-70
2021/12/11 08:40:00;;;;;;;;;;;;;;;12.37;38.16;99053.53;4468328;32;33973;-70
2021/12/11 08:42:28;;;;;;;;;;;;;;;13.16;36.38;99054.03;4471160;32;34241;-70
2021/12/11 08:45:05;;;;;;;;;;;;;;;12.26;38.81;99060.75;4471597;32;33545;-70
2021/12/11 08:47:35;;;;;;;;;;;;;;;12.91;37.20;99065.44;4477901;32;34167;-72
2021/12/11 08:50:03;;;;;;;;;;;;;;;12.32;38.88;99064.69;4472726;32;33367;-71
2021/12/11 08:52:32;;;;;;;;;;;;;;;12.42;38.01;99059.31;4480913;32;34106;-72
2021/12/11 08:55:00;;;;;;;;;;;;;;;11.68;40.03;99051.78;4475347;32;32076;-72
2021/12/11 08:57:29;;;;;;;;;;;;;;;12.67;37.62;99057.88;4468027;32;33488;-70
2021/12/11 08:59:58;;;;;;;;;;;;;;;12.26;38.31;99067.94;4465913;32;35007;-70
2021/12/11 09:02:27;;;;;;;;;;;;;;;12.21;38.14;99071.06;4465164;32;34325;-71
2021/12/11 09:05:05;;;;;;;;;;;;;;;12.08;39.03;99071.34;4467054;32;33227;-70
2021/12/11 09:07:35;;;;;;;;;;;;;;;11.43;39.37;99073.59;4465749;32;34034;-71
2021/12/11 09:10:05;;;;;;;;;;;;;;;11.36;40.50;99075.12;4467687;32;33377;-72
2021/12/11 09:12:40;;;;;;;;;;;;;;;11.71;39.41;99079.16;4469707;32;34648;-71
2021/12/11 09:15:23;;;;;;;;;;;;;;;11.46;41.08;99079.66;4466755;32;33605;-72
2021/12/11 09:17:55;;;;;;;;;;;;;;;11.97;39.56;99084.03;4472819;32;34406;-72
2021/12/11 09:20:30;;;;;;;;;;;;;;;11.36;40.02;99085.84;4457491;32;34395;-72
2021/12/11 09:23:02;;;;;;;;;;;;;;;11.56;39.69;99100.16;4475540;32;35587;-70
2021/12/11 09:25:35;;;;;;;;;;;;;;;11.19;40.60;99105.22;4465953;32;34642;-70
2021/12/11 09:28:23;;;;;;;;;;;;;;;11.15;40.17;99106.47;4467840;32;34258;-70
2021/12/11 09:30:59;;;;;;;;;;;;;;;10.55;42.09;99108.09;4464975;32;34203;-72
2021/12/11 09:33:34;;;;;;;;;;;;;;;11.17;40.94;99116.09;4473405;32;34393;-71
2021/12/11 09:36:10;;;;;;;;;;;;;;;11.08;41.00;99113.34;4478520;32;33597;-71
2021/12/11 09:38:39;;;;;;;;;;;;;;;11.01;40.21;99114.84;4465525;32;34379;-69
2021/12/11 09:41:20;;;;;;;;;;;;;;;11.02;41.80;99127.28;4475187;32;33428;-70
2021/12/11 09:43:57;;;;;;;;;;;;;;;10.88;41.30;99123.97;4467866;32;34511;-70
2021/12/11 09:46:27;;;;;;;;;;;;;;;10.84;41.10;99133.22;4476210;32;33727;-73
2021/12/11 09:48:55;;;;;;;;;;;;;;;10.27;41.73;99137.16;4475243;32;33062;-71
2021/12/11 09:51:26;;;;;;;;;;;;;;;9.71;44.69;99138.13;4455782;32;35330;-70
2021/12/11 09:53:56;;;;;;;;;;;;;;;10.75;42.73;99123.28;4466716;32;35190;-70
2021/12/11 09:56:43;;;;;;;;;;;;;;;10.67;42.22;99123.97;4466157;32;34543;-71
2021/12/11 09:59:13;;;;;;;;;;;;;;;10.58;42.07;99122.06;4467487;32;32911;-74
2021/12/11 10:01:41;;;;;;;;;;;;;;;10.04;42.74;99117.63;4468963;32;35795;-71
2021/12/11 10:04:10;;;;;;;;;;;;;;;9.83;43.87;99114.91;4465648;32;33137;-71
2021/12/11 10:06:43;;;;;;;;;;;;;;;10.11;43.94;99105.47;4466588;32;34578;-71
2021/12/11 10:09:19;;;;;;;;;;;;;;;10.25;43.32;99099.81;4468889;32;34254;-69
2021/12/11 10:12:01;;;;;;;;;;;;;;;10.48;43.62;99099.75;4467147;32;34231;-69
2021/12/11 10:14:49;;;;;;;;;;;;;;;10.26;42.66;99093.50;4471438;32;35880;-70
2021/12/11 10:17:24;;;;;;;;;;;;;;;10.34;43.57;99100.06;4467071;32;33693;-71
2021/12/11 10:19:53;;;;;;;;;;;;;;;10.46;44.49;99091.84;4472589;32;34133;-71
2021/12/11 10:22:22;;;;;;;;;;;;;;;11.21;42.05;99089.03;4473180;32;34447;-72
2021/12/11 10:24:50;;;;;;;;;;;;;;;10.71;42.37;99095.94;4466528;32;34098;-71
2021/12/11 10:27:20;;;;;;;;;;;;;;;10.62;42.71;99090.53;4470875;32;33436;-72
2021/12/11 10:29:48;;;;;;;;;;;;;;;10.69;43.07;99097.06;4453860;32;33770;-72
2021/12/11 10:32:17;;;;;;;;;;;;;;;10.86;42.37;99101.81;4468491;32;32931;-72
2021/12/11 10:34:47;;;;;;;;;;;;;;;10.09;44.36;99104.75;4467979;32;34495;-72
2021/12/11 10:37:16;;;;;;;;;;;;;;;10.05;44.93;99105.97;4468599;32;33253;-72
2021/12/11 10:39:45;;;;;;;;;;;;;;;10.58;43.21;99108.69;4470328;32;34341;-76
2021/12/11 10:42:13;;;;;;;;;;;;;;;10.48;44.25;99121.97;4455488;32;34140;-76
2021/12/11 10:44:42;;;;;;;;;;;;;;;9.96;44.69;99120.94;4457738;32;34583;-76
2021/12/11 10:47:20;;;;;;;;;;;;;;;10.69;42.97;99116.66;4469863;32;34454;-77
2021/12/11 10:50:20;;;;;;;;;;;;;;;11.33;41.26;99118.28;4476544;32;34024;-76
2021/12/11 10:52:48;;;;;;;;;;;;;;;10.53;42.85;99118.06;4455082;32;34297;-77
2021/12/11 10:55:18;;;;;;;;;;;;;;;10.03;44.95;99119.47;4459540;32;34476;-76
2021/12/11 10:57:46;;;;;;;;;;;;;;;10.62;43.36;99106.59;4471712;32;33525;-77
2021/12/11 11:00:17;;;;;;;;;;;;;;;10.38;43.58;99102.34;4457485;32;33065;-76
2021/12/11 11:02:44;;;;;;;;;;;;;;;10.22;43.10;99101.91;4476554;32;33203;-76
2021/12/11 11:05:16;;;;;;;;;;;;;;;10.75;42.62;99106.38;4472267;32;34630;-77
2021/12/11 11:07:44;;;;;;;;;;;;;;;10.26;43.07;99100.69;4453049;32;33401;-79
2021/12/11 11:10:20;;;;;;;;;;;;;;;10.49;43.28;99099.59;4477464;32;34105;-76
2021/12/11 11:12:48;;;;;;;;;;;;;;;10.41;44.37;99094.06;4467794;32;32785;-78
2021/12/11 11:15:17;;;;;;;;;;;;;;;10.02;44.35;99093.72;4467746;32;34524;-76
2021/12/11 11:17:44;;;;;;;;;;;;;;;10.76;43.59;99097.41;4463589;32;33573;-77
2021/12/11 11:20:13;;;;;;;;;;;;;;;11.10;42.03;99106.03;4458445;32;34158;-76
2021/12/11 11:22:41;;;;;;;;;;;;;;;11.13;42.40;99101.25;4454498;32;33064;-76
2021/12/11 11:25:11;;;;;;;;;;;;;;;10.54;44.07;99103.72;4464732;32;34244;-77
2021/12/11 11:27:39;;;;;;;;;;;;;;;9.91;45.79;99096.41;4471374;32;33752;-77
2021/12/11 11:30:09;;;;;;;;;;;;;;;10.35;44.61;99093.72;4463916;32;33532;-75
2021/12/11 11:32:36;;;;;;;;;;;;;;;10.12;44.78;99090.28;4451071;32;34382;-76
2021/12/11 11:35:09;;;;;;;;;;;;;;;10.11;44.72;99093.91;4472872;32;34364;-77
2021/12/11 11:37:47;;;;;;;;;;;;;;;10.67;43.47;99099.03;4471352;32;35120;-76
2021/12/11 11:40:17;;;;;;;;;;;;;;;10.59;43.52;99099.66;4467063;32;34132;-75
2021/12/11 11:42:44;;;;;;;;;;;;;;;10.72;43.51;99088.75;4469608;32;32857;-80
2021/12/11 11:45:13;;;;;;;;;;;;;;;10.91;43.76;99086.22;4476739;32;35542;-76
2021/12/11 11:47:41;;;;;;;;;;;;;;;10.82;43.16;99089.69;4457261;32;33598;-77
2021/12/11 11:50:09;;;;;;;;;;;;;;;11.66;40.98;99102.88;4456673;32;34315;-76
2021/12/11 11:52:38;;;;;;;;;;;;;;;10.67;43.93;99104.38;4455056;32;35304;-77
2021/12/11 11:55:07;;;;;;;;;;;;;;;11.25;41.97;99111.88;4446967;32;35679;-81
2021/12/11 11:57:36;;;;;;;;;;;;;;;11.78;40.51;99117.84;4460417;32;33568;-76
2021/12/11 12:00:10;;;;;;;;;;;;;;;11.51;41.47;99121.12;4462065;32;34147;-76
2021/12/11 12:02:38;;;;;;;;;;;;;;;11.61;40.69;99129.22;4469935;32;33396;-76
2021/12/11 12:05:06;;;;;;;;;;;;;;;11.66;41.22;99129.66;4458790;32;32976;-76
2021/12/11 12:07:34;;;;;;;;;;;;;;;11.51;41.48;99133.69;4472059;32;32069;-76
2021/12/11 12:10:07;;;;;;;;;;;;;;;11.71;41.05;99138.13;4478178;32;32998;-77
2021/12/11 12:12:35;;;;;;;;;;;;;;;11.47;40.61;99138.47;4461214;32;35049;-77
2021/12/11 12:15:04;;;;;;;;;;;;;;;11.85;39.97;99140.47;4461351;32;34603;-76
2021/12/11 12:17:31;;;;;;;;;;;;;;;11.23;41.50;99143.31;4471163;32;33348;-77
2021/12/11 12:19:59;;;;;;;;;;;;;;;11.71;40.50;99143.50;4476585;32;34173;-76
2021/12/11 12:22:27;;;;;;;;;;;;;;;11.67;41.56;99142.06;4466921;32;34230;-77
2021/12/11 12:24:55;;;;;;;;;;;;;;;12.01;39.96;99156.03;4466324;32;35362;-76
2021/12/11 12:27:25;;;;;;;;;;;;;;;12.32;39.62;99150.56;4458617;32;33529;-76
2021/12/11 12:29:53;;;;;;;;;;;;;;;12.55;38.85;99149.31;4461867;32;35289;-76
2021/12/11 12:32:22;;;;;;;;;;;;;;;12.79;38.82;99148.84;4466369;32;34358;-76
2021/12/11 12:34:51;;;;;;;;;;;;;;;13.37;37.21;99149.75;4453371;32;33219;-78
2021/12/11 12:37:19;;;;;;;;;;;;;;;13.35;37.22;99149.03;4451557;32;33305;-77
2021/12/11 12:39:49;;;;;;;;;;;;;;;13.07;37.25;99140.91;4473800;32;34284;-77
2021/12/11 12:42:37;;;;;;;;;;;;;;;13.33;36.97;99149.19;4454266;32;35266;-77
2021/12/11 12:45:13;;;;;;;;;;;;;;;13.14;37.21;99146.53;4473214;32;34439;-76
2021/12/11 12:47:46;;;;;;;;;;;;;;;13.36;37.30;99148.91;4473655;32;32392;-76
2021/12/11 12:50:19;;;;;;;;;;;;;;;13.86;36.15;99136.91;4471065;32;35027;-78
2021/12/11 12:52:47;;;;;;;;;;;;;;;13.71;36.60;99136.59;4471527;32;34230;-76
2021/12/11 12:55:27;;;;;;;;;;;;;;;13.67;36.55;99127.94;4463591;32;33760;-76
2021/12/11 12:57:55;;;;;;;;;;;;;;;13.54;37.47;99129.28;4467461;32;34603;-76
2021/12/11 13:00:33;;;;;;;;;;;;;;;13.56;36.94;99133.53;4473943;32;32642;-79
2021/12/11 13:03:05;;;;;;;;;;;;;;;14.00;36.45;99131.03;4461994;32;35390;-76
2021/12/11 13:05:34;;;;;;;;;;;;;;;14.19;35.73;99135.44;4454871;32;35383;-77
2021/12/11 13:08:04;;;;;;;;;;;;;;;14.39;35.54;99139.66;4461591;32;32269;-76
2021/12/11 13:10:37;;;;;;;;;;;;;;;14.56;35.27;99124.53;4460208;32;33932;-76
2021/12/11 13:13:06;;;;;;;;;;;;;;;13.61;37.30;99125.88;4468305;32;32984;-81
2021/12/11 13:15:39;;;;;;;;;;;;;;;13.89;36.70;99129.38;4471024;32;34409;-77
2021/12/11 13:18:10;;;;;;;;;;;;;;;14.01;36.01;99124.66;4461344;32;30913;-79
2021/12/11 13:20:40;;;;;;;;;;;;;;;13.12;38.36;99127.00;4476855;32;35376;-77